Time;durP1;ratioP1;P1;durP2;ratioP2;P2;SDS_P1;SDS_P2;PMS_P1;PMS_P2;Temp;Humidity;BMP_temperature;BMP_pressure;BME280_temperature;BME280_humidity;BME280_pressure;Samples;Min_cycle;Max_cycle;Signal;HPM_P1;HPM_P2
2021/09/07 00:02:15;;;;;;;2.90;1.85;;;;;;;;;;5019521;28;20053;-55
2021/09/07 00:04:40;;;;;;;2.97;1.63;;;;;;;;;;5014703;28;20025;-54
2021/09/07 00:07:06;;;;;;;7.18;2.40;;;;;;;;;;5015447;28;20049;-54
2021/09/07 00:09:31;;;;;;;4.65;2.47;;;;;;;;;;5017680;28;20069;-54
2021/09/07 00:11:56;;;;;;;1.55;1.08;;;;;;;;;;5013929;28;20029;-56
2021/09/07 00:14:22;;;;;;;2.83;1.92;;;;;;;;;;5011619;28;20061;-56
2021/09/07 00:16:47;;;;;;;7.72;2.20;;;;;;;;;;5014860;28;20652;-56
2021/09/07 00:19:12;;;;;;;3.33;2.05;;;;;;;;;;5016533;28;20074;-56
2021/09/07 00:21:38;;;;;;;5.15;1.92;;;;;;;;;;5018503;28;20516;-56
2021/09/07 00:24:03;;;;;;;2.53;2.25;;;;;;;;;;5015451;28;20405;-56
2021/09/07 00:26:28;;;;;;;2.13;1.73;;;;;;;;;;5012075;28;20164;-55
2021/09/07 00:28:54;;;;;;;2.63;1.95;;;;;;;;;;5008298;28;20028;-56
2021/09/07 00:31:19;;;;;;;5.35;2.38;;;;;;;;;;5015594;28;20017;-55
2021/09/07 00:33:44;;;;;;;7.70;3.47;;;;;;;;;;5009788;28;20080;-56
2021/09/07 00:36:10;;;;;;;12.02;2.60;;;;;;;;;;5009616;28;20034;-56
2021/09/07 00:38:35;;;;;;;3.97;2.63;;;;;;;;;;5017121;28;20030;-56
2021/09/07 00:41:00;;;;;;;7.78;2.70;;;;;;;;;;5017633;28;20076;-54
2021/09/07 00:43:26;;;;;;;2.42;1.88;;;;;;;;;;5015682;28;20025;-56
2021/09/07 00:45:51;;;;;;;2.92;2.13;;;;;;;;;;5015040;28;20021;-56
2021/09/07 00:48:16;;;;;;;5.00;2.38;;;;;;;;;;5018430;28;20018;-56
2021/09/07 00:50:42;;;;;;;4.70;2.80;;;;;;;;;;5014154;28;20228;-56
2021/09/07 00:53:07;;;;;;;3.38;2.13;;;;;;;;;;5018699;28;20042;-56
2021/09/07 00:55:33;;;;;;;4.63;3.28;;;;;;;;;;5013624;28;20999;-56
2021/09/07 00:57:58;;;;;;;3.70;2.42;;;;;;;;;;5018519;28;20030;-56
2021/09/07 01:00:24;;;;;;;3.78;2.45;;;;;;;;;;5015241;28;20492;-54
2021/09/07 01:02:49;;;;;;;4.40;3.05;;;;;;;;;;5017535;28;20107;-53
2021/09/07 01:05:14;;;;;;;8.23;2.38;;;;;;;;;;5012802;28;20732;-55
2021/09/07 01:07:40;;;;;;;3.00;1.88;;;;;;;;;;5014898;28;20105;-56
2021/09/07 01:10:06;;;;;;;5.90;2.70;;;;;;;;;;5014805;28;20022;-57
2021/09/07 01:12:32;;;;;;;4.95;3.05;;;;;;;;;;5015375;28;20111;-57
2021/09/07 01:14:57;;;;;;;2.38;2.17;;;;;;;;;;5018439;28;20031;-51
2021/09/07 01:17:22;;;;;;;5.55;3.28;;;;;;;;;;5018057;28;20524;-55
2021/09/07 01:19:49;;;;;;;3.17;2.08;;;;;;;;;;5018159;28;20068;-54
2021/09/07 01:22:15;;;;;;;2.60;2.17;;;;;;;;;;5015997;28;20041;-56
2021/09/07 01:24:41;;;;;;;4.82;2.58;;;;;;;;;;5010834;28;20018;-55
2021/09/07 01:27:06;;;;;;;2.40;1.65;;;;;;;;;;5015515;28;20033;-56
2021/09/07 01:29:35;;;;;;;6.22;3.15;;;;;;;;;;5014646;28;20168;-55
2021/09/07 01:32:02;;;;;;;6.30;2.55;;;;;;;;;;5012357;28;20029;-52
2021/09/07 01:34:27;;;;;;;4.28;2.65;;;;;;;;;;5019505;28;20488;-52
2021/09/07 01:36:53;;;;;;;10.38;3.10;;;;;;;;;;5015691;28;20079;-56
2021/09/07 01:39:21;;;;;;;5.68;3.25;;;;;;;;;;5019784;28;20025;-56
2021/09/07 01:41:46;;;;;;;8.38;3.55;;;;;;;;;;5020010;28;20017;-56
2021/09/07 01:44:12;;;;;;;3.28;2.83;;;;;;;;;;5017502;28;20025;-56
2021/09/07 01:46:37;;;;;;;4.63;2.90;;;;;;;;;;5019627;28;20080;-56
2021/09/07 01:49:02;;;;;;;4.38;2.88;;;;;;;;;;5018194;28;20056;-57
2021/09/07 01:51:28;;;;;;;4.88;2.33;;;;;;;;;;5019999;28;20025;-53
2021/09/07 01:53:53;;;;;;;2.50;2.13;;;;;;;;;;5018810;28;20582;-56
2021/09/07 01:56:18;;;;;;;2.75;1.63;;;;;;;;;;5020245;28;20080;-55
2021/09/07 01:58:43;;;;;;;2.92;2.05;;;;;;;;;;5018199;28;20025;-55
2021/09/07 02:01:09;;;;;;;4.88;2.55;;;;;;;;;;5019837;28;20033;-56
2021/09/07 02:03:34;;;;;;;13.13;3.03;;;;;;;;;;5013525;28;20107;-55
2021/09/07 02:05:59;;;;;;;8.25;3.40;;;;;;;;;;5017338;28;20531;-56
2021/09/07 02:08:25;;;;;;;3.90;2.40;;;;;;;;;;5012726;28;20029;-55
2021/09/07 02:10:50;;;;;;;10.50;2.65;;;;;;;;;;5011513;28;20028;-56
2021/09/07 02:13:15;;;;;;;3.72;1.83;;;;;;;;;;5017473;28;20053;-54
2021/09/07 02:15:41;;;;;;;4.55;2.72;;;;;;;;;;5020693;28;20034;-55
2021/09/07 02:18:06;;;;;;;4.78;3.13;;;;;;;;;;5016429;28;20028;-55
2021/09/07 02:20:31;;;;;;;3.72;2.67;;;;;;;;;;5016923;28;20026;-56
2021/09/07 02:22:57;;;;;;;5.00;3.05;;;;;;;;;;5014742;28;20036;-56
2021/09/07 02:25:22;;;;;;;3.30;2.10;;;;;;;;;;5014470;28;20496;-56
2021/09/07 02:27:47;;;;;;;3.05;2.10;;;;;;;;;;5010180;28;20029;-54
2021/09/07 02:30:13;;;;;;;11.40;2.63;;;;;;;;;;5013628;28;20014;-55
2021/09/07 02:32:38;;;;;;;4.85;2.70;;;;;;;;;;5015442;28;20421;-53
2021/09/07 02:35:04;;;;;;;2.85;2.13;;;;;;;;;;5014680;28;20397;-55
2021/09/07 02:37:29;;;;;;;4.38;2.58;;;;;;;;;;5015001;28;20087;-53
2021/09/07 02:39:54;;;;;;;3.42;1.92;;;;;;;;;;5013474;28;20037;-53
2021/09/07 02:42:20;;;;;;;3.58;2.30;;;;;;;;;;5016148;28;20167;-55
2021/09/07 02:44:45;;;;;;;3.45;2.03;;;;;;;;;;5013101;28;20026;-55
2021/09/07 02:47:10;;;;;;;3.35;2.55;;;;;;;;;;5018103;28;20086;-54
2021/09/07 02:49:36;;;;;;;10.82;3.08;;;;;;;;;;5021008;28;20038;-54
2021/09/07 02:52:01;;;;;;;3.85;3.17;;;;;;;;;;5019133;28;20022;-54
2021/09/07 02:54:27;;;;;;;5.05;3.40;;;;;;;;;;5008364;28;20080;-54
2021/09/07 02:56:52;;;;;;;7.25;4.03;;;;;;;;;;5014730;28;20025;-55
2021/09/07 02:59:17;;;;;;;4.85;3.45;;;;;;;;;;5016035;28;20029;-56
2021/09/07 03:01:42;;;;;;;4.10;2.78;;;;;;;;;;5018267;28;20025;-55
2021/09/07 03:04:08;;;;;;;6.97;3.00;;;;;;;;;;5014628;28;20518;-56
2021/09/07 03:06:34;;;;;;;3.55;2.40;;;;;;;;;;5019804;28;20026;-54
2021/09/07 03:08:59;;;;;;;3.70;2.63;;;;;;;;;;5016410;28;20557;-55
2021/09/07 03:11:24;;;;;;;5.38;2.95;;;;;;;;;;5019593;28;20026;-56
2021/09/07 03:13:50;;;;;;;7.95;2.85;;;;;;;;;;5011735;28;20021;-55
2021/09/07 03:16:15;;;;;;;6.43;2.80;;;;;;;;;;5007331;28;20026;-55
2021/09/07 03:18:40;;;;;;;3.50;2.53;;;;;;;;;;5012193;28;20397;-56
2021/09/07 03:21:05;;;;;;;4.47;2.80;;;;;;;;;;5015967;28;20082;-54
2021/09/07 03:23:31;;;;;;;3.70;2.33;;;;;;;;;;5017272;28;20030;-56
2021/09/07 03:25:56;;;;;;;2.90;1.88;;;;;;;;;;5018803;28;20020;-55
2021/09/07 03:28:21;;;;;;;2.90;1.92;;;;;;;;;;5020476;28;20237;-54
2021/09/07 03:30:47;;;;;;;2.55;1.75;;;;;;;;;;5015340;28;20033;-55
2021/09/07 03:33:12;;;;;;;8.55;2.40;;;;;;;;;;5011451;28;20176;-55
2021/09/07 03:35:37;;;;;;;3.83;2.28;;;;;;;;;;5014249;28;20413;-54
2021/09/07 03:38:03;;;;;;;3.95;2.55;;;;;;;;;;5012578;28;20060;-56
2021/09/07 03:40:28;;;;;;;4.85;2.63;;;;;;;;;;5010908;28;20030;-54
2021/09/07 03:42:53;;;;;;;5.97;3.20;;;;;;;;;;5012571;28;20073;-54
2021/09/07 03:45:19;;;;;;;3.85;2.20;;;;;;;;;;5011935;28;20504;-55
2021/09/07 03:47:44;;;;;;;3.45;1.95;;;;;;;;;;5017524;28;20021;-56
2021/09/07 03:50:10;;;;;;;2.38;1.65;;;;;;;;;;5018029;28;20096;-55
2021/09/07 03:52:36;;;;;;;3.83;3.00;;;;;;;;;;5012310;28;20021;-55
2021/09/07 03:55:02;;;;;;;3.63;1.73;;;;;;;;;;5017900;28;20032;-55
2021/09/07 03:57:27;;;;;;;4.63;1.88;;;;;;;;;;5014871;28;20029;-53
2021/09/07 03:59:53;;;;;;;6.25;2.95;;;;;;;;;;5017452;28;20048;-54
2021/09/07 04:02:19;;;;;;;5.88;2.55;;;;;;;;;;5017612;28;20144;-55
2021/09/07 04:04:44;;;;;;;4.18;2.08;;;;;;;;;;5011229;28;20029;-56
2021/09/07 04:07:09;;;;;;;7.43;2.28;;;;;;;;;;5010075;28;20152;-53
2021/09/07 04:09:35;;;;;;;2.67;2.40;;;;;;;;;;5014065;28;20018;-53
2021/09/07 04:12:00;;;;;;;3.70;2.35;;;;;;;;;;5010608;28;20023;-54
2021/09/07 04:14:25;;;;;;;6.70;3.97;;;;;;;;;;5004539;28;20774;-54
2021/09/07 04:16:50;;;;;;;2.88;2.40;;;;;;;;;;5008159;28;20108;-56
2021/09/07 04:19:16;;;;;;;4.57;2.35;;;;;;;;;;5017765;28;20488;-55
2021/09/07 04:21:41;;;;;;;3.53;2.45;;;;;;;;;;5011948;28;20108;-56
2021/09/07 04:24:07;;;;;;;4.22;3.08;;;;;;;;;;5016935;28;20057;-53
2021/09/07 04:26:53;;;;;;;4.53;2.92;;;;;;;;;;5017918;28;20478;-55
2021/09/07 04:29:19;;;;;;;5.38;3.70;;;;;;;;;;5012608;28;20478;-55
2021/09/07 04:31:44;;;;;;;3.08;2.20;;;;;;;;;;5015228;28;20029;-55
2021/09/07 04:34:09;;;;;;;3.45;2.05;;;;;;;;;;5011576;28;20497;-55
2021/09/07 04:36:34;;;;;;;7.32;2.45;;;;;;;;;;5016108;28;20053;-56
2021/09/07 04:39:00;;;;;;;6.82;4.18;;;;;;;;;;5017718;28;20030;-55
2021/09/07 04:41:28;;;;;;;8.02;3.15;;;;;;;;;;5019080;28;20393;-54
2021/09/07 04:43:53;;;;;;;7.78;3.00;;;;;;;;;;5017999;28;20029;-55
2021/09/07 04:46:18;;;;;;;6.10;4.75;;;;;;;;;;5017316;28;20071;-54
2021/09/07 04:48:44;;;;;;;3.95;2.70;;;;;;;;;;5014890;28;20142;-54
2021/09/07 04:51:09;;;;;;;4.78;3.35;;;;;;;;;;5011727;28;20720;-54
2021/09/07 04:53:34;;;;;;;11.48;10.30;;;;;;;;;;5018868;28;20051;-54
2021/09/07 04:56:00;;;;;;;4.88;2.65;;;;;;;;;;5020118;28;20558;-56
2021/09/07 04:58:25;;;;;;;4.45;2.75;;;;;;;;;;5017182;28;20030;-54
2021/09/07 05:00:51;;;;;;;5.43;3.55;;;;;;;;;;5019471;28;20519;-56
2021/09/07 05:03:16;;;;;;;4.25;3.40;;;;;;;;;;5018601;28;20050;-56
2021/09/07 05:05:41;;;;;;;2.78;2.58;;;;;;;;;;5015882;28;20108;-56
2021/09/07 05:08:06;;;;;;;3.35;2.47;;;;;;;;;;5014041;28;20093;-56
2021/09/07 05:10:32;;;;;;;10.80;3.08;;;;;;;;;;5017914;28;20026;-54
2021/09/07 05:12:57;;;;;;;3.45;2.38;;;;;;;;;;5018449;28;20097;-52
2021/09/07 05:15:22;;;;;;;3.47;2.45;;;;;;;;;;5016017;28;20444;-55
2021/09/07 05:17:49;;;;;;;13.48;4.30;;;;;;;;;;5019372;28;20485;-55
2021/09/07 05:20:14;;;;;;;4.38;3.13;;;;;;;;;;5019596;28;20040;-54
2021/09/07 05:22:39;;;;;;;9.50;2.97;;;;;;;;;;5015650;28;20026;-56
2021/09/07 05:25:05;;;;;;;7.55;3.60;;;;;;;;;;5013450;28;20698;-53
2021/09/07 05:27:35;;;;;;;5.15;2.40;;;;;;;;;;5020141;28;20029;-53
2021/09/07 05:30:01;;;;;;;4.07;3.00;;;;;;;;;;5025108;28;20024;-55
2021/09/07 05:32:26;;;;;;;4.43;2.60;;;;;;;;;;5019525;28;20247;-54
2021/09/07 05:34:51;;;;;;;1.95;1.40;;;;;;;;;;5015394;28;20026;-56
2021/09/07 05:37:17;;;;;;;3.92;2.53;;;;;;;;;;5015910;28;20018;-57
2021/09/07 05:39:42;;;;;;;3.10;2.05;;;;;;;;;;5018611;28;20029;-54
2021/09/07 05:42:07;;;;;;;6.43;3.60;;;;;;;;;;5012218;28;20112;-55
2021/09/07 05:44:33;;;;;;;9.27;1.85;;;;;;;;;;5004767;28;20113;-56
2021/09/07 05:46:59;;;;;;;3.00;2.22;;;;;;;;;;5010562;28;20121;-54
2021/09/07 05:49:25;;;;;;;6.63;3.40;;;;;;;;;;5003889;28;20028;-51
2021/09/07 05:51:50;;;;;;;4.00;2.83;;;;;;;;;;5013220;28;20021;-54
2021/09/07 05:54:15;;;;;;;8.10;1.70;;;;;;;;;;5013381;28;20071;-55
2021/09/07 05:56:41;;;;;;;3.55;3.25;;;;;;;;;;5013863;28;20029;-55
2021/09/07 05:59:06;;;;;;;14.52;3.70;;;;;;;;;;5015568;28;20044;-56
2021/09/07 06:01:31;;;;;;;5.40;3.58;;;;;;;;;;5018487;28;20017;-54
2021/09/07 06:03:56;;;;;;;3.60;2.92;;;;;;;;;;5014567;28;20060;-52
2021/09/07 06:06:23;;;;;;;3.22;2.75;;;;;;;;;;5015429;28;20080;-51
2021/09/07 06:08:48;;;;;;;3.85;3.03;;;;;;;;;;5007121;28;20026;-54
2021/09/07 06:11:13;;;;;;;7.10;3.08;;;;;;;;;;5016374;28;20031;-55
2021/09/07 06:13:39;;;;;;;11.02;5.25;;;;;;;;;;5017752;28;20022;-53
2021/09/07 06:16:04;;;;;;;5.80;3.92;;;;;;;;;;5017105;28;20029;-53
2021/09/07 06:18:29;;;;;;;5.38;2.85;;;;;;;;;;5017361;28;20025;-55
2021/09/07 06:20:55;;;;;;;5.47;4.97;;;;;;;;;;5017975;28;20053;-55
2021/09/07 06:23:21;;;;;;;4.25;3.75;;;;;;;;;;5017703;28;20033;-53
2021/09/07 06:25:47;;;;;;;3.80;3.30;;;;;;;;;;5019668;28;20057;-55
2021/09/07 06:28:12;;;;;;;5.47;2.80;;;;;;;;;;5015237;28;20413;-54
2021/09/07 06:30:37;;;;;;;4.47;3.45;;;;;;;;;;5015225;28;20041;-55
2021/09/07 06:33:02;;;;;;;6.10;4.05;;;;;;;;;;5017818;28;20022;-55
2021/09/07 06:35:28;;;;;;;13.40;4.35;;;;;;;;;;5019432;28;20030;-50
2021/09/07 06:37:54;;;;;;;6.18;5.57;;;;;;;;;;5015739;28;20148;-56
2021/09/07 06:40:20;;;;;;;15.45;5.30;;;;;;;;;;5017019;28;20056;-54
2021/09/07 06:42:45;;;;;;;5.25;4.75;;;;;;;;;;5016408;28;20757;-54
2021/09/07 06:45:10;;;;;;;14.10;12.70;;;;;;;;;;5019450;28;20018;-53
2021/09/07 06:47:36;;;;;;;31.13;7.22;;;;;;;;;;5017514;28;20648;-53
2021/09/07 06:50:02;;;;;;;4.20;3.15;;;;;;;;;;5012122;28;20076;-49
2021/09/07 06:52:30;;;;;;;6.22;3.42;;;;;;;;;;5011102;28;20060;-53
2021/09/07 06:54:56;;;;;;;11.65;3.50;;;;;;;;;;5007874;28;20020;-51
2021/09/07 06:57:21;;;;;;;7.22;4.60;;;;;;;;;;5019081;28;20017;-53
2021/09/07 06:59:47;;;;;;;6.38;3.50;;;;;;;;;;5016610;28;20488;-55
2021/09/07 07:02:12;;;;;;;3.35;2.80;;;;;;;;;;5021178;28;20091;-55
2021/09/07 07:04:37;;;;;;;4.40;2.85;;;;;;;;;;5014573;28;20120;-54
2021/09/07 07:07:03;;;;;;;2.65;2.25;;;;;;;;;;5018557;28;20029;-53
2021/09/07 07:09:28;;;;;;;3.70;2.88;;;;;;;;;;5020589;28;20037;-51
2021/09/07 07:11:53;;;;;;;5.95;3.50;;;;;;;;;;5018916;28;20016;-55
2021/09/07 07:14:21;;;;;;;4.32;2.40;;;;;;;;;;5009626;28;20237;-54
2021/09/07 07:16:47;;;;;;;3.80;3.13;;;;;;;;;;5014461;28;20043;-52
2021/09/07 07:19:13;;;;;;;4.40;2.97;;;;;;;;;;5020873;28;20108;-53
2021/09/07 07:21:38;;;;;;;4.10;2.30;;;;;;;;;;5015382;28;20168;-52
2021/09/07 07:24:03;;;;;;;13.82;4.78;;;;;;;;;;5020013;28;20028;-53
2021/09/07 07:26:29;;;;;;;9.25;6.13;;;;;;;;;;5050183;28;20006;-52
2021/09/07 07:28:55;;;;;;;21.33;5.60;;;;;;;;;;5012286;28;20079;-54
2021/09/07 07:31:20;;;;;;;4.07;2.17;;;;;;;;;;5018191;28;20009;-53
2021/09/07 07:33:45;;;;;;;4.93;2.58;;;;;;;;;;5016091;28;20033;-48
2021/09/07 07:36:11;;;;;;;3.83;2.60;;;;;;;;;;5018253;28;20100;-51
2021/09/07 07:38:36;;;;;;;3.45;2.30;;;;;;;;;;5017815;28;20064;-49
2021/09/07 07:41:02;;;;;;;6.88;2.25;;;;;;;;;;5015539;28;20481;-50
2021/09/07 07:43:29;;;;;;;21.27;3.13;;;;;;;;;;5016695;28;20025;-54
2021/09/07 07:45:54;;;;;;;14.05;10.63;;;;;;;;;;5017224;28;20021;-49
2021/09/07 07:48:20;;;;;;;19.35;16.58;;;;;;;;;;5016448;28;20071;-50
2021/09/07 07:50:45;;;;;;;6.75;5.15;;;;;;;;;;5015869;28;20066;-49
2021/09/07 07:53:10;;;;;;;7.45;5.43;;;;;;;;;;5006690;28;20484;-49
2021/09/07 07:55:36;;;;;;;10.38;7.82;;;;;;;;;;5014053;28;20064;-52
2021/09/07 07:58:01;;;;;;;24.27;21.73;;;;;;;;;;5024705;28;20063;-49
2021/09/07 08:00:26;;;;;;;107.88;96.93;;;;;;;;;;5017942;28;20378;-46
2021/09/07 08:02:52;;;;;;;12.75;10.88;;;;;;;;;;5019559;28;20409;-50
2021/09/07 08:05:17;;;;;;;7.32;4.25;;;;;;;;;;5015550;28;20026;-50
2021/09/07 08:07:42;;;;;;;6.22;4.82;;;;;;;;;;5018425;28;20021;-57
2021/09/07 08:10:08;;;;;;;9.80;6.40;;;;;;;;;;5012399;28;20057;-55
2021/09/07 08:12:33;;;;;;;42.33;38.30;;;;;;;;;;5011195;28;20028;-49
2021/09/07 08:14:58;;;;;;;7.93;5.43;;;;;;;;;;5007069;28;20030;-55
2021/09/07 08:17:24;;;;;;;6.68;4.72;;;;;;;;;;5004907;28;20026;-50
2021/09/07 08:19:49;;;;;;;20.30;15.52;;;;;;;;;;5019892;28;20121;-50
2021/09/07 08:22:14;;;;;;;12.40;5.85;;;;;;;;;;5015261;28;20021;-48
2021/09/07 08:24:40;;;;;;;6.95;4.55;;;;;;;;;;5014016;28;20030;-48
2021/09/07 08:27:05;;;;;;;25.38;8.95;;;;;;;;;;5016335;28;20016;-58
2021/09/07 08:29:31;;;;;;;6.82;6.15;;;;;;;;;;5014972;28;20545;-57
2021/09/07 08:31:56;;;;;;;9.38;5.97;;;;;;;;;;5014891;28;20028;-58
2021/09/07 08:34:21;;;;;;;8.43;5.05;;;;;;;;;;5014323;28;20084;-58
2021/09/07 08:36:46;;;;;;;13.15;3.85;;;;;;;;;;5014801;28;20045;-58
2021/09/07 08:39:12;;;;;;;23.45;3.88;;;;;;;;;;5013533;28;20065;-56
2021/09/07 08:41:37;;;;;;;14.48;2.00;;;;;;;;;;5011521;28;20018;-55
2021/09/07 08:44:03;;;;;;;6.88;5.93;;;;;;;;;;5014809;28;20022;-56
2021/09/07 08:46:31;;;;;;;10.10;8.20;;;;;;;;;;5008218;28;20022;-54
2021/09/07 08:48:56;;;;;;;7.18;3.13;;;;;;;;;;5012975;28;20025;-56
2021/09/07 08:51:22;;;;;;;3.58;2.55;;;;;;;;;;5018922;28;20084;-56
2021/09/07 08:53:48;;;;;;;4.05;2.15;;;;;;;;;;5017271;28;20029;-51
2021/09/07 08:56:13;;;;;;;5.15;2.83;;;;;;;;;;5014925;28;20075;-51
2021/09/07 08:58:38;;;;;;;5.15;2.10;;;;;;;;;;5018937;28;20682;-52
2021/09/07 09:01:10;;;;;;;5.25;3.55;;;;;;;;;;5015209;28;20105;-51
2021/09/07 09:03:35;;;;;;;6.70;3.47;;;;;;;;;;5008793;28;20080;-52
2021/09/07 09:06:00;;;;;;;3.70;2.10;;;;;;;;;;5020216;28;20508;-51
2021/09/07 09:08:25;;;;;;;17.70;1.48;;;;;;;;;;5015171;28;20018;-49
2021/09/07 09:11:02;;;;;;;8.43;3.83;;;;;;;;;;5017729;28;20030;-50
2021/09/07 09:13:39;;;;;;;8.18;2.92;;;;;;;;;;5017032;28;20021;-53
2021/09/07 09:16:05;;;;;;;6.20;5.60;;;;;;;;;;5019689;28;20113;-53
2021/09/07 09:18:32;;;;;;;7.97;2.45;;;;;;;;;;5021807;28;20088;-50
2021/09/07 09:21:18;;;;;;;9.52;3.65;;;;;;;;;;5019888;28;20226;-51
2021/09/07 09:23:45;;;;;;;11.70;7.88;;;;;;;;;;5020975;28;20025;-51
2021/09/07 09:26:11;;;;;;;8.73;4.45;;;;;;;;;;5015107;28;20116;-49
2021/09/07 09:28:36;;;;;;;7.50;6.30;;;;;;;;;;5020365;28;20104;-50
2021/09/07 09:31:01;;;;;;;5.85;2.58;;;;;;;;;;5017254;28;20048;-51
2021/09/07 09:33:28;;;;;;;6.57;2.08;;;;;;;;;;5014659;28;20025;-53
2021/09/07 09:36:01;;;;;;;12.10;8.18;;;;;;;;;;5020618;28;20014;-52
2021/09/07 09:38:27;;;;;;;11.80;8.95;;;;;;;;;;5016482;28;20056;-51
2021/09/07 09:40:57;;;;;;;6.05;4.63;;;;;;;;;;5015861;28;20136;-51
2021/09/07 09:43:25;;;;;;;6.60;4.55;;;;;;;;;;5018841;28;20084;-54
2021/09/07 09:45:51;;;;;;;3.67;2.60;;;;;;;;;;5019711;28;20020;-66
2021/09/07 09:48:23;;;;;;;10.95;3.05;;;;;;;;;;5018832;28;20173;-66
2021/09/07 09:50:52;;;;;;;3.47;1.55;;;;;;;;;;5015349;28;20014;-65
2021/09/07 09:53:20;;;;;;;11.45;3.13;;;;;;;;;;5014903;28;20022;-65
2021/09/07 09:55:47;;;;;;;1.52;1.13;;;;;;;;;;5013441;28;20030;-66
2021/09/07 09:58:14;;;;;;;5.15;3.33;;;;;;;;;;5044145;28;20086;-65
2021/09/07 10:00:39;;;;;;;4.75;2.03;;;;;;;;;;5019342;28;20034;-66
2021/09/07 10:03:07;;;;;;;11.55;2.40;;;;;;;;;;5019355;28;20398;-64
2021/09/07 10:05:33;;;;;;;3.95;2.47;;;;;;;;;;5016800;28;20030;-66
2021/09/07 10:07:58;;;;;;;7.63;3.33;;;;;;;;;;5023086;28;20175;-65
2021/09/07 10:10:23;;;;;;;3.72;2.42;;;;;;;;;;5019405;28;20270;-66
2021/09/07 10:12:57;;;;;;;3.85;2.22;;;;;;;;;;5019431;28;20030;-65
2021/09/07 10:15:30;;;;;;;4.47;2.60;;;;;;;;;;5019426;28;20485;-65
2021/09/07 10:18:26;;;;;;;2.80;2.08;;;;;;;;;;5013018;28;20155;-65
2021/09/07 10:21:02;;;;;;;4.57;2.30;;;;;;;;;;5016008;28;20033;-65
2021/09/07 10:26:39;;;;;;;3.17;2.03;;;;;;;;;;5017175;28;20036;-65
2021/09/07 10:29:08;;;;;;;4.15;2.22;;;;;;;;;;5018989;28;20032;-65
2021/09/07 10:31:39;;;;;;;3.63;2.50;;;;;;;;;;5019082;28;20041;-65
2021/09/07 10:34:05;;;;;;;3.35;2.33;;;;;;;;;;5008584;28;20048;-64
2021/09/07 10:36:34;;;;;;;12.50;2.05;;;;;;;;;;5020814;28;20104;-65
2021/09/07 10:39:03;;;;;;;2.70;1.73;;;;;;;;;;5021927;28;20037;-65
2021/09/07 10:41:34;;;;;;;6.28;2.20;;;;;;;;;;5021053;28;20072;-65
2021/09/07 10:44:03;;;;;;;1.95;1.77;;;;;;;;;;5018632;28;20057;-65
2021/09/07 10:46:44;;;;;;;5.63;2.90;;;;;;;;;;5017370;28;20457;-64
2021/09/07 10:49:23;;;;;;;4.05;1.63;;;;;;;;;;5016944;28;20052;-64
2021/09/07 10:52:10;;;;;;;8.30;2.78;;;;;;;;;;5013568;28;20019;-64
2021/09/07 10:54:59;;;;;;;7.78;3.08;;;;;;;;;;5016984;28;20087;-65
2021/09/07 10:57:41;;;;;;;3.85;2.75;;;;;;;;;;5010830;28;20029;-65
2021/09/07 11:00:21;;;;;;;6.75;2.33;;;;;;;;;;5012854;28;20018;-64
2021/09/07 11:02:52;;;;;;;5.15;3.80;;;;;;;;;;5015463;28;20072;-65
2021/09/07 11:05:17;;;;;;;;;;;;;;;;;;5018700;28;20054;-65
2021/09/07 11:07:44;;;;;;;3.80;2.93;;;;;;;;;;5016370;28;19981;-66
2021/09/07 11:10:32;;;;;;;4.10;2.80;;;;;;;;;;5025075;28;20103;-65
2021/09/07 11:13:05;;;;;;;7.35;3.33;;;;;;;;;;5018574;28;20104;-66
2021/09/07 11:15:38;;;;;;;3.85;3.20;;;;;;;;;;5015849;28;20030;-66
2021/09/07 11:18:13;;;;;;;5.70;4.28;;;;;;;;;;5017536;28;20032;-66
2021/09/07 11:20:39;;;;;;;6.40;2.22;;;;;;;;;;5018792;28;20022;-65
2021/09/07 11:23:09;;;;;;;2.42;1.60;;;;;;;;;;5015011;28;20030;-66
2021/09/07 11:25:35;;;;;;;5.18;2.60;;;;;;;;;;5020739;28;20057;-67
2021/09/07 11:28:02;;;;;;;3.58;2.65;;;;;;;;;;5015977;28;20104;-66
2021/09/07 11:30:29;;;;;;;20.40;4.50;;;;;;;;;;5017519;28;20023;-64
2021/09/07 11:32:56;;;;;;;7.18;3.15;;;;;;;;;;5012365;28;20022;-64
2021/09/07 11:35:21;;;;;;;4.88;4.03;;;;;;;;;;5018512;28;20018;-64
2021/09/07 11:37:46;;;;;;;3.53;3.22;;;;;;;;;;5017032;28;20036;-63
2021/09/07 11:40:16;;;;;;;2.95;2.47;;;;;;;;;;5019227;28;20034;-63
2021/09/07 11:42:45;;;;;;;7.05;3.78;;;;;;;;;;5016813;28;20026;-64
2021/09/07 11:45:18;;;;;;;8.23;4.07;;;;;;;;;;5013822;28;20026;-64
2021/09/07 11:47:44;;;;;;;2.88;2.10;;;;;;;;;;5015660;28;20029;-63
2021/09/07 11:50:14;;;;;;;11.95;3.58;;;;;;;;;;5019118;28;20026;-64
2021/09/07 11:52:39;;;;;;;5.65;3.20;;;;;;;;;;5022509;28;20017;-64
2021/09/07 11:55:07;;;;;;;6.70;2.60;;;;;;;;;;5011887;28;20105;-64
2021/09/07 11:57:44;;;;;;;3.75;3.10;;;;;;;;;;5019491;28;20499;-64
2021/09/07 12:00:10;;;;;;;4.47;3.78;;;;;;;;;;5017034;28;20032;-64
2021/09/07 12:02:35;;;;;;;3.90;2.92;;;;;;;;;;5013498;28;20045;-64
2021/09/07 12:05:01;;;;;;;3.63;2.75;;;;;;;;;;5018886;28;20032;-65
2021/09/07 12:07:27;;;;;;;4.80;2.92;;;;;;;;;;5018169;28;20032;-66
2021/09/07 12:09:52;;;;;;;4.15;2.80;;;;;;;;;;5021120;28;20017;-66
2021/09/07 12:12:18;;;;;;;4.75;3.10;;;;;;;;;;5015799;28;20017;-66
2021/09/07 12:14:44;;;;;;;4.07;2.80;;;;;;;;;;5022085;28;20029;-66
2021/09/07 12:17:15;;;;;;;7.35;3.25;;;;;;;;;;5020084;28;20033;-64
2021/09/07 12:19:41;;;;;;;3.40;2.83;;;;;;;;;;5016686;28;20030;-64
2021/09/07 12:22:15;;;;;;;3.25;2.08;;;;;;;;;;5014166;28;20460;-65
2021/09/07 12:25:00;;;;;;;4.07;2.78;;;;;;;;;;5008928;28;20520;-65
2021/09/07 12:27:27;;;;;;;4.32;3.22;;;;;;;;;;5012550;28;20116;-66
2021/09/07 12:30:11;;;;;;;4.25;2.92;;;;;;;;;;5014792;28;20017;-67
2021/09/07 12:32:46;;;;;;;5.93;3.05;;;;;;;;;;5016971;28;20122;-63
2021/09/07 12:35:11;;;;;;;6.63;2.08;;;;;;;;;;5022627;28;20112;-63
2021/09/07 12:37:36;;;;;;;3.38;1.90;;;;;;;;;;5017277;28;20109;-64
2021/09/07 12:40:02;;;;;;;3.30;2.22;;;;;;;;;;5016458;28;20014;-65
2021/09/07 12:42:27;;;;;;;5.72;2.50;;;;;;;;;;5013303;28;20080;-65
2021/09/07 12:44:52;;;;;;;5.43;2.90;;;;;;;;;;5011726;28;20087;-66
2021/09/07 12:47:18;;;;;;;3.13;2.67;;;;;;;;;;5021471;28;20072;-65
2021/09/07 12:49:43;;;;;;;3.30;2.30;;;;;;;;;;5016287;28;20040;-66
2021/09/07 12:52:08;;;;;;;3.42;2.45;;;;;;;;;;5019432;28;20025;-67
2021/09/07 12:54:34;;;;;;;3.17;2.38;;;;;;;;;;5018164;28;20022;-66
2021/09/07 12:56:59;;;;;;;4.30;3.03;;;;;;;;;;5021975;28;20547;-70
2021/09/07 12:59:24;;;;;;;10.40;3.95;;;;;;;;;;5010951;28;20038;-70
2021/09/07 13:01:49;;;;;;;5.10;3.17;;;;;;;;;;5018980;28;20025;-70
2021/09/07 13:04:15;;;;;;;4.82;2.28;;;;;;;;;;5013052;28;20393;-70
2021/09/07 13:06:40;;;;;;;4.90;2.90;;;;;;;;;;5019026;28;20060;-70
2021/09/07 13:09:05;;;;;;;5.53;2.03;;;;;;;;;;5016715;28;20095;-71
2021/09/07 13:11:31;;;;;;;2.63;1.92;;;;;;;;;;5017247;28;20389;-71
2021/09/07 13:13:56;;;;;;;2.75;2.10;;;;;;;;;;5023439;28;20048;-71
2021/09/07 13:16:21;;;;;;;6.78;2.88;;;;;;;;;;5017795;28;20104;-70
2021/09/07 13:18:48;;;;;;;2.35;1.65;;;;;;;;;;5021009;28;20112;-71
2021/09/07 13:21:13;;;;;;;12.60;2.72;;;;;;;;;;5027043;28;20085;-72
2021/09/07 13:23:40;;;;;;;2.97;1.80;;;;;;;;;;5020685;28;20026;-72
2021/09/07 13:26:06;;;;;;;8.43;3.13;;;;;;;;;;5018295;28;20746;-73
2021/09/07 13:28:31;;;;;;;5.05;2.53;;;;;;;;;;5017714;28;20033;-73
2021/09/07 13:30:56;;;;;;;3.13;2.00;;;;;;;;;;5019269;28;20013;-73
2021/09/07 13:33:22;;;;;;;3.92;3.40;;;;;;;;;;5020099;28;20432;-73
2021/09/07 13:35:47;;;;;;;3.17;2.10;;;;;;;;;;5021964;28;20018;-72
2021/09/07 13:38:13;;;;;;;3.80;1.88;;;;;;;;;;5021984;28;20580;-73
2021/09/07 13:40:39;;;;;;;4.20;2.03;;;;;;;;;;5021289;28;20077;-72
2021/09/07 13:43:04;;;;;;;11.63;2.15;;;;;;;;;;5019021;28;20022;-72
2021/09/07 13:45:29;;;;;;;2.63;1.98;;;;;;;;;;5018494;28;20101;-73
2021/09/07 13:47:55;;;;;;;3.42;1.92;;;;;;;;;;5017905;28;20631;-73
2021/09/07 13:50:20;;;;;;;2.47;1.92;;;;;;;;;;5015012;28;20026;-72
2021/09/07 13:52:45;;;;;;;3.92;2.70;;;;;;;;;;5015849;28;20092;-72
2021/09/07 13:55:11;;;;;;;4.57;2.13;;;;;;;;;;5021258;28;20168;-72
2021/09/07 13:57:37;;;;;;;3.13;1.45;;;;;;;;;;5017199;28;20496;-74
2021/09/07 14:00:04;;;;;;;9.40;2.40;;;;;;;;;;5015992;28;20031;-73
2021/09/07 14:02:29;;;;;;;5.50;2.97;;;;;;;;;;5015548;28;20065;-72
2021/09/07 14:04:55;;;;;;;5.15;2.03;;;;;;;;;;5015332;28;20025;-72
2021/09/07 14:07:20;;;;;;;4.30;2.28;;;;;;;;;;5018918;28;20018;-71
2021/09/07 14:09:45;;;;;;;3.22;1.25;;;;;;;;;;5016159;28;20067;-73
2021/09/07 14:12:11;;;;;;;5.28;2.63;;;;;;;;;;5012593;28;20437;-72
2021/09/07 14:14:37;;;;;;;2.05;1.52;;;;;;;;;;5008071;28;20478;-73
2021/09/07 14:17:02;;;;;;;2.80;2.10;;;;;;;;;;5013097;28;20509;-72
2021/09/07 14:19:28;;;;;;;2.42;1.98;;;;;;;;;;5017642;28;20026;-72
2021/09/07 14:21:54;;;;;;;4.55;2.67;;;;;;;;;;5014128;28;20040;-70
2021/09/07 14:24:19;;;;;;;4.13;2.42;;;;;;;;;;5016678;28;20021;-72
2021/09/07 14:26:44;;;;;;;2.38;1.67;;;;;;;;;;5014805;28;20576;-71
2021/09/07 14:29:10;;;;;;;2.97;1.70;;;;;;;;;;5015884;28;20388;-71
2021/09/07 14:31:36;;;;;;;3.83;1.58;;;;;;;;;;5013333;28;20017;-71
2021/09/07 14:34:01;;;;;;;8.10;1.40;;;;;;;;;;5011012;28;20033;-72
2021/09/07 14:36:27;;;;;;;3.35;1.92;;;;;;;;;;5014174;28;20032;-70
2021/09/07 14:38:52;;;;;;;2.45;1.55;;;;;;;;;;5015766;28;20545;-70
2021/09/07 14:41:17;;;;;;;4.80;2.13;;;;;;;;;;5013568;28;20022;-70